Historique des mesures à Cassis (13260), France
Quotidien Résumé Octobre 3, 2018 Unités:  Métrique    US   Métrique/US
« Précédent (Jour)
Suivant (Jour) »
Quotidien Hebdomadaire Mensuel Annuel Période au choix
  Maximum: Minimum: Moyenne:
Température: TemperatureC °C 15.5 °C 18.7 °C
Point de rosée: DewpointC °C 3.5 °C 7 °C
Humidité: Humidity % 39 % 43 %
Vitesse du vent: 0 km/h 0 km/h 7.6 km/h
Rafales: 0 km/h - -
Vent:- - SW
Pression: PressurehPa hPa 1013.9 hPa -
Précipitations: 0.0 mm    
Historical Graphs
 
 
Mesures pour : Octobre 3, 2018
Heure Temperature Point de rosée Pression Vent Vitesse du vent Rafales Humidité Pluie (par heure) Conditions
TemperatureC °C DewpointC °C PressurehPa hPa Calm     Humidity % HourlyPrecipMM mm SoftwareType W/m2
00:10 16.1 °C 3.8 °C 1015.3 hPa Calm   5.1 km/h 44 % 0.0 mm open2300-1.11 W/m2
01:10 15.9 °C 3.9 °C 1015.4 hPa Calm   2.3 km/h 45 % 0.0 mm open2300-1.11 W/m2
02:10 15.8 °C 3.5 °C 1015.6 hPa Calm   10.5 km/h 44 % 0.0 mm open2300-1.11 W/m2
03:10 15.9 °C 3.6 °C 1015.7 hPa North 4 km/h 4 km/h 44 % 0.0 mm open2300-1.11 W/m2
04:10 15.9 °C 3.9 °C 1015.5 hPa NNW 5.8 km/h 5.8 km/h 45 % 0.0 mm open2300-1.11 W/m2
05:10 15.9 °C 4.2 °C 1015.6 hPa NNW 3.5 km/h 8.7 km/h 46 % 0.0 mm open2300-1.11 W/m2
06:10 15.9 °C 4.5 °C 1015.5 hPa NW 17.4 km/h 17.4 km/h 47 % 0.0 mm open2300-1.11 W/m2
07:11 15.6 °C 4.6 °C 1015.5 hPa WNW 7.6 km/h 7.6 km/h 48 % 0.0 mm open2300-1.11 W/m2
08:10 15.5 °C 4.8 °C 1015.7 hPa ENE 8.7 km/h 8.7 km/h 49 % 0.0 mm open2300-1.11 W/m2
09:10 16.8 °C 5.4 °C 1016.1 hPa North 4 km/h 4 km/h 47 % 0.0 mm open2300-1.11 W/m2
10:10 18.5 °C 6.3 °C 1016.5 hPa NNW 5.1 km/h 7.6 km/h 45 % 0.0 mm open2300-1.11 W/m2
11:10 20.2 °C 7.2 °C 1016.5 hPa Calm   8 km/h 43 % 0.0 mm open2300-1.11 W/m2
12:10 21.9 °C 9.0 °C 1016.1 hPa SSW 5.8 km/h 9.3 km/h 44 % 0.0 mm open2300-1.11 W/m2
13:10 22.9 °C 9.9 °C 1015.6 hPa Calm   5.8 km/h 44 % 0.0 mm open2300-1.11 W/m2
14:10 23.8 °C 9.4 °C 1015.3 hPa ESE 8.7 km/h 10.5 km/h 40 % 0.0 mm open2300-1.11 W/m2
15:10 24.3 °C 9.4 °C 1014.6 hPa SSE 15.6 km/h 15.6 km/h 39 % 0.0 mm open2300-1.11 W/m2
16:10 24.5 °C 10.7 °C 1014.4 hPa SE 3.5 km/h 9.3 km/h 42 % 0.0 mm open2300-1.11 W/m2
17:10 24.1 °C 11.4 °C 1014.0 hPa SE 6.4 km/h 10.9 km/h 45 % 0.0 mm open2300-1.11 W/m2
18:10 23.9 °C 9.1 °C 1013.9 hPa WNW 5.8 km/h 27.2 km/h 39 % 0.0 mm open2300-1.11 W/m2
19:10 22.6 °C 10.0 °C 1014.1 hPa WNW 35.4 km/h 35.4 km/h 45 % 0.0 mm open2300-1.11 W/m2
20:10 21.6 °C 10.1 °C 1014.1 hPa NNW 31.2 km/h 37.7 km/h 48 % 0.0 mm open2300-1.11 W/m2
21:10 21.3 °C 9.8 °C 1014.4 hPa NW 7.6 km/h 15.1 km/h 48 % 0.0 mm open2300-1.11 W/m2
22:10 20.1 °C 9.7 °C 1014.4 hPa NNW 4 km/h 6.4 km/h 51 % 0.0 mm open2300-1.11 W/m2
23:10 19.4 °C 9.6 °C 1014.2 hPa NW 8.7 km/h 15.6 km/h 53 % 0.0 mm open2300-1.11 W/m2
Observations météo à CASSIS
WU-History script by Weather Underground - 1 mb